Flight Track Log - Related Links

Times and Time Zones

All times are in EDT time to prevent confusion due to time zone crossing. See the SWA534 flight status page for this flight to view local times or setup timezone preferences in your user account.

Time Position Orientation Groundspeed Altitude Reporting Facility
EDT Latitude Longitude Course Direction KTS MPH feet Rate Location/Type
Mon 01:14:00 AM 40.7647 -111.9739 179° South 180 207 5,200  Level Salt Lake Center
Mon 01:14:43 AM 40.7256 -111.9728 179° South 199 229 5,900 1,631 Climbing Salt Lake Center
Mon 01:15:43 AM 40.6578 -111.9675 177° South 238 274 8,000 1,380 Climbing Salt Lake Center
Mon 01:16:23 AM 40.6347 -111.9636 173° South 248 285 8,200 1,604 Climbing Salt Lake Center
Mon 01:17:24 AM 40.5364 -111.9575 177° South 297 342 10,700 2,213 Climbing Salt Lake Center
Mon 01:18:25 AM 40.4408 -111.9511 177° South 343 395 12,700 2,115 Climbing Salt Lake Center
Mon 01:19:26 AM 40.3419 -111.9439 177° South 355 409 15,000 2,430 Climbing Salt Lake Center
Mon 01:20:26 AM 40.2181 -111.9481 181° South 379 436 17,600 2,231 Climbing Salt Lake Center
Mon 01:21:27 AM 40.1108 -111.9647 187° South 389 448 19,500 2,016 Climbing Salt Lake Center
Mon 01:22:28 AM 40.0075 -112.0133 200° South 401 461 21,700 2,016 Climbing Salt Lake Center
Mon 01:23:29 AM 39.9067 -112.0786 206° Southwest 403 464 23,600 1,770 Climbing Salt Lake Center
Mon 01:24:30 AM 39.8047 -112.1444 206° Southwest 407 468 25,300 1,537 Climbing Salt Lake Center
Mon 01:25:30 AM 39.6944 -112.1969 200° South 422 486 26,700 1,438 Climbing Salt Lake Center
Mon 01:26:31 AM 39.5783 -112.2283 192° South 425 489 28,200 1,377 Climbing Salt Lake Center
Mon 01:27:32 AM 39.4617 -112.2611 192° South 430 495 29,500 1,475 Climbing Salt Lake Center
Mon 01:28:33 AM 39.3461 -112.2978 194° South 428 493 31,200 1,240 Climbing Salt Lake Center
Mon 01:29:33 AM 39.2431 -112.3628 206° Southwest 414 476 32,000 397 Climbing Salt Lake Center
Mon 01:30:34 AM 39.1428 -112.4300 207° Southwest 425 489 32,000  Level Salt Lake Center
Mon 01:31:35 AM 39.0164 -112.5136 207° Southwest 426 490 32,000  Level Salt Lake Center
Mon 01:32:35 AM 38.9111 -112.5833 207° Southwest 427 491 32,000  Level Salt Lake Center
Mon 01:33:36 AM 38.8064 -112.6533 208° Southwest 426 490 32,000  Level Salt Lake Center
Mon 01:34:37 AM 38.7031 -112.7239 208° Southwest 423 487 32,000  Level Salt Lake Center
Mon 01:35:38 AM 38.5989 -112.7922 207° Southwest 422 486 32,000  Level Salt Lake Center
Mon 01:36:38 AM 38.4936 -112.8597 207° Southwest 425 489 32,000  Level Salt Lake Center
Mon 01:37:39 AM 38.3881 -112.9289 207° Southwest 426 490 32,000  Level Salt Lake Center
Mon 01:38:40 AM 38.2803 -113.0003 207° Southwest 436 502 32,000  Level Salt Lake Center
Mon 01:39:40 AM 38.1719 -113.0714 207° Southwest 440 506 32,000  Level Salt Lake Center
Mon 01:40:41 AM 38.0611 -113.1433 207° Southwest 448 516 32,000  Level Salt Lake Center
Mon 01:41:42 AM 37.9531 -113.2144 207° Southwest 443 510 32,000  Level Salt Lake Center
Mon 01:42:42 AM 37.8444 -113.2844 207° Southwest 441 507 32,000  Level Salt Lake Center
Mon 01:43:43 AM 37.7369 -113.3531 207° Southwest 440 506 32,000  Level Salt Lake Center
Mon 01:44:44 AM 37.6297 -113.4211 207° Southwest 436 502 32,000 -51 Level Salt Lake Center
Mon 01:45:40 AM 37.5231 -113.4892 207° Southwest 436 502 31,900 -615 Descending Los Angeles Center
Mon 01:46:41 AM 37.4133 -113.5433 201° Southwest 429 494 30,800 -1,033 Descending Los Angeles Center
Mon 01:47:42 AM 37.3014 -113.5739 192° South 415 478 29,800 -1,082 Descending Los Angeles Center
Mon 01:48:43 AM 37.1681 -113.6103 192° South 410 472 28,600 -984 Descending Los Angeles Center
Mon 01:49:44 AM 37.0808 -113.6339 192° South 405 466 27,800 -984 Descending Los Angeles Center
Mon 01:50:45 AM 36.9656 -113.7119 208° Southwest 397 457 26,600 -1,082 Descending Los Angeles Center
Mon 01:51:46 AM 36.8786 -113.7958 218° Southwest 395 455 25,600 -1,279 Descending Los Angeles Center
Mon 01:52:47 AM 36.7983 -113.8956 225° Southwest 384 442 24,000 -1,721 Descending Los Angeles Center
Mon 01:53:48 AM 36.7367 -113.9875 230° Southwest 370 426 22,100 -2,016 Descending Los Angeles Center
Mon 01:54:49 AM 36.6686 -114.0869 230° Southwest 377 434 19,900 -2,066 Descending Los Angeles Center
Mon 01:55:50 AM 36.6008 -114.1831 229° Southwest 373 429 17,900 -2,063 Descending Los Angeles Center
Mon 01:56:25 AM 36.5536 -114.2458 227° Southwest 368 423 16,600 -2,063 Descending Los Angeles Center
Mon 01:57:26 AM 36.4964 -114.3381 232° Southwest 351 404 14,600 -1,984 Descending Los Angeles Center
Mon 01:58:32 AM 36.4256 -114.4372 228° Southwest 336 387 12,400 -1,289 Descending Los Angeles Center
Mon 01:59:27 AM 36.3697 -114.4883 216° Southwest 305 351 12,000 -724 Descending Los Angeles Center
Mon 02:00:28 AM 36.2936 -114.4956 184° South 258 297 11,000 -984 Descending Los Angeles Center
Mon 02:01:29 AM 36.2211 -114.5014 184° South 256 295 10,000 -992 Descending Los Angeles Center
Mon 02:02:35 AM 36.1494 -114.5283 197° South 256 295 8,900 -898 Descending Los Angeles Center
Mon 02:03:36 AM 36.1133 -114.5992 238° Southwest 249 287 8,100 -443 Descending Los Angeles Center
Mon 02:04:37 AM 36.0792 -114.6800 242° Southwest 245 282 8,000 -98 Descending Los Angeles Center
Mon 02:05:38 AM 36.0731 -114.7594 265° West 233 268 7,900 -750 Descending Los Angeles Center
Mon 02:06:45 AM 36.0728 -114.8472 270° West 238 274 6,400 -1,266 Descending Los Angeles Center
Mon 02:07:46 AM 36.0742 -114.9214 271° West 218 251 5,200 -1,096 Descending Los Angeles Center
Mon 02:08:40 AM 36.0731 -114.9856 269° West 195 224 4,300 -939 Descending Los Angeles Center
Mon 02:09:41 AM 36.0744 -115.0411 272° West 157 181 3,400 -787 Descending Los Angeles Center
Mon 02:10:42 AM 36.0725 -115.0922 267° West 143 165 2,700 -689 Descending Los Angeles Center
Mon 02:13:00 AM 36.0667 -115.1500 219° Southwest  Level FlightAware Approximate

Login

Don't have an account? Register now (free) for customized features, flight alerts, and more!